ADDS METAR Data INFO
IDs: Format: Raw Decoded Include TAF

Data at: 0644 UTC 23 Feb 2018

KCUL 230635Z AUTO 00000KT 3SM +RA OVC004 10/10 A3023 RMK AO2 LTG DSNT SW P0008 T00960096
KCUL 230615Z AUTO 11005KT 5SM RA OVC004 10/10 A3023 RMK AO2 P0002 T00950095
KCUL 230555Z AUTO 10007KT 4SM RA OVC002 09/09 A3024 RMK AO2 P0007 60007 T00930093 10093 20085 400970032
KCUL 230535Z AUTO 11010KT 1 3/4SM -RA OVC002 09/09 A3023 RMK AO2 P0005 T00900090
KCUL 230515Z AUTO 11005KT 1 1/4SM RA OVC002 09/09 A3026 RMK AO2 P0002 T00870087
KCUL 230455Z AUTO 16006KT 1 1/4SM -RA OVC004 09/09 A3031 RMK AO2 P0004 T00860086
KCUL 230435Z AUTO 08005KT 1/2SM RA OVC004 09/09 A3029 RMK AO2 P0002 T00860086
KCUL 230415Z AUTO 00000KT 1/2SM RA OVC004 09/09 A3032 RMK AO2 T00850085
KCUL 230400Z AUTO 00000KT 1/2SM FG OVC004 09/09 A3032 RMK AO2 T00850085
KCUL 230335Z AUTO 00000KT 1/2SM RA OVC004 09/09 A3032 RMK AO2 P0001 T00860086
KCUL 230320Z AUTO 00000KT 1/2SM -RA OVC004 09/09 A3032 RMK AO2 T00850085
KCUL 230255Z AUTO 00000KT 3/4SM BR OVC004 09/09 A3033 RMK AO2 T00860086
KCUL 230235Z AUTO 00000KT 3/4SM BR OVC004 09/09 A3034 RMK AO2 T00860086
KCUL 230215Z AUTO 00000KT 3/4SM BR OVC002 09/09 A3031 RMK AO2 T00860086
KCUL 230155Z AUTO 00000KT 1SM BR OVC002 09/09 A3032 RMK AO2 T00860086
KCUL 230135Z AUTO 00000KT 1 1/2SM BR OVC002 09/09 A3033 RMK AO2 T00870087
KCUL 230115Z AUTO 00000KT 1 1/4SM BR OVC002 09/09 A3032 RMK AO2 T00870087
KCUL 230055Z AUTO 00000KT 1 1/4SM BR OVC004 09/09 A3031 RMK AO2 T00860086
KCUL 230035Z AUTO 00000KT 1 3/4SM BR OVC006 09/09 A3032 RMK AO2 T00860086
KCUL 230015Z AUTO 00000KT 2SM BR OVC006 09/09 A3033 RMK AO2 T00880087
KCUL 222355Z AUTO 00000KT 2 1/2SM BR OVC006 09/09 A3033 RMK AO2 T00900086 10097 20081
KCUL 222335Z AUTO 25003KT 7SM OVC006 09/09 A3035 RMK AO2 T00910086
KCUL 222315Z AUTO 21003KT 7SM OVC008 09/09 A3035 RMK AO2 T00940087
KCUL 222255Z AUTO 21006KT 7SM OVC010 10/09 A3034 RMK AO2 T00960087
KCUL 222235Z AUTO 17004KT 7SM OVC010 10/09 A3032 RMK AO2 T00960088
KCUL 222215Z AUTO 15004KT 5SM BR OVC010 10/09 A3030 RMK AO2 T00950088
KCUL 222155Z AUTO 14005KT 7SM OVC007 09/09 A3030 RMK AO2 T00940087
KCUL 222135Z AUTO 11005KT 5SM BR OVC007 09/09 A3030 RMK AO2 T00930087
KCUL 222115Z AUTO 11005KT 7SM OVC007 09/09 A3031 RMK AO2 T00930085
KCUL 222055Z AUTO 11006KT 7SM OVC007 09/08 A3031 RMK AO2 T00910083
KCUL 222035Z AUTO 10006KT 7SM OVC007 09/08 A3031 RMK AO2 T00900081
KCUL 222015Z AUTO 11004KT 7SM OVC007 09/08 A3032 RMK AO2 T00880080
KCUL 221955Z AUTO 11004KT 10SM OVC007 09/08 A3033 RMK AO2 T00880079
KCUL 221940Z AUTO 12003KT 10SM OVC007 09/08 A3034 RMK AO2 T00850076
KCUL 221915Z AUTO 00000KT 10SM OVC007 09/07 A3035 RMK AO2 T00850073
KCUL 221900Z AUTO 00000KT 10SM OVC007 09/07 A3036 RMK AO2 T00850073
KCUL 221835Z AUTO 00000KT 10SM OVC007 08/07 A3035 RMK AO2 T00840071
KCUL 221815Z AUTO 00000KT 10SM OVC007 08/07 A3037 RMK AO2 T00820071
KCUL 221755Z AUTO 00000KT 10SM OVC007 08/07 A3038 RMK AO2 T00810070 10081 20050
KCUL 221735Z AUTO 00000KT 10SM OVC007 08/07 A3038 RMK AO2 T00800070
KCUL 221715Z AUTO 08007KT 10SM OVC007 08/07 A3038 RMK AO2 T00760067
KCUL 221655Z AUTO 07007KT 10SM OVC005 08/07 A3039 RMK AO2 T00750070
KCUL 221635Z AUTO 07007KT 7SM OVC005 07/07 A3038 RMK AO2 T00700065
KCUL 221615Z AUTO 07009KT 4SM BR OVC005 07/06 A3038 RMK AO2 T00680064
KCUL 221555Z AUTO 07008KT 5SM BR OVC007 07/06 A3038 RMK AO2 T00660062
KCUL 221535Z AUTO 06011KT 5SM BR OVC007 06/06 A3038 RMK AO2 T00640060
KCUL 221515Z AUTO 05008KT 4SM BR OVC007 06/06 A3037 RMK AO2 T00600056
KCUL 221455Z AUTO 04008KT 7SM OVC007 06/06 A3038 RMK AO2 LTG DSNT S T00600055
KCUL 221435Z AUTO 03010KT 7SM OVC007 06/05 A3037 RMK AO2 T00580052
KCUL 221415Z AUTO 03009KT 10SM OVC007 06/05 A3037 RMK AO2 T00570052
KCUL 221355Z AUTO 03009KT 10SM OVC007 06/05 A3037 RMK AO2 T00550050
KCUL 221335Z AUTO 02007KT 10SM OVC007 05/05 A3036 RMK AO2 LTG DSNT S T00530050
KCUL 221315Z AUTO 03008KT 10SM OVC007 05/05 A3035 RMK AO2 T00510048
KCUL 221255Z AUTO 02009KT 10SM OVC007 05/05 A3034 RMK AO2 T00500047
KCUL 221240Z AUTO 01008KT 10SM OVC007 05/05 A3033 RMK AO2 T00500047
KCUL 221215Z AUTO 01010KT 4SM BR OVC005 05/05 A3032 RMK AO2 T00500048
KCUL 221200Z AUTO 36011KT 4SM -RA OVC007 05/05 A3033 RMK AO2 LTG DSNT S T00510049
KCUL 221135Z AUTO 33010KT 5SM +DZ OVC007 05/05 A3036 RMK AO2 P0001 T00520048
KCUL 221120Z AUTO 31013G16KT 10SM DZ OVC007 05/05 A3035 RMK AO2 T00520048
KCUL 221055Z AUTO 32010KT 10SM OVC009 05/05 A3031 RMK AO2 T00520048
KCUL 221035Z AUTO 30010KT 10SM OVC009 05/05 A3032 RMK AO2 T00530048
KCUL 221015Z AUTO 30018KT 10SM OVC009 06/05 A3031 RMK AO2 T00550048
KCUL 220955Z AUTO 11012G26KT 10SM -RA OVC007 05/05 A3020 RMK AO2 T00500045
KCUL 220935Z AUTO 10023G27KT 10SM -DZ OVC009 05/04 A3019 RMK AO2 T00470043
KCUL 220915Z AUTO 09010KT 10SM OVC009 05/04 A3027 RMK AO2 T00460042
KCUL 220855Z AUTO 06009KT 7SM OVC009 05/04 A3030 RMK AO2 P0001 60001 T00450040
KCUL 220835Z AUTO 06009KT 7SM -DZ OVC009 05/04 A3032 RMK AO2 P0001 T00450040
KCUL 220815Z AUTO 05009KT 10SM -DZ OVC009 04/04 A3032 RMK AO2 P0001 T00430040
KCUL 220755Z AUTO 05009KT 7SM -RA OVC009 04/04 A3032 RMK AO2 P0004 T00410038
KCUL 220735Z AUTO 04009KT 7SM RA OVC009 04/04 A3034 RMK AO2 P0002 T00400036
KCUL 220720Z AUTO 04009KT 10SM -RA OVC007 04/04 A3035 RMK AO2 P0001 T00380035
KCUL 220655Z AUTO 03010KT 10SM -RA OVC007 04/03 A3036 RMK AO2 P0010 T00360032
KCUL 220635Z AUTO 02009KT 7SM RA OVC007 04/03 A3037 RMK AO2 P0008 T00350031
KCUL 220615Z AUTO 03010KT 5SM +RA OVC007 03/03 A3038 RMK AO2 P0005 T00330030
KCUL 220555Z AUTO 02011KT 5SM RA OVC007 03/03 A3038 RMK AO2 P0017 60019 T00320030 10041 20031
KCUL 220535Z AUTO 01010KT 4SM RA OVC009 03/03 A3040 RMK AO2 P0012 T00310027
KCUL 220515Z AUTO 02010KT 4SM +RA OVC009 03/03 A3041 RMK AO2 P0007 T00310027
KCUL 220500Z AUTO 02010KT 5SM RA OVC009 03/03 A3041 RMK AO2 P0001 T00310027
KCUL 220435Z AUTO 02012KT 7SM RA OVC007 03/03 A3042 RMK AO2 P0007 T00310026
KCUL 220420Z AUTO 02012G18KT 7SM RA OVC007 03/03 A3042 RMK AO2 P0004 T00310026
KCUL 220355Z AUTO 03014KT 7SM RA OVC007 03/03 A3042 RMK AO2 P0008 T00310027
KCUL 220035Z AUTO 05005KT 7SM -RA SCT009 OVC020 04/03 A3045 RMK AO2 P0004 T00380033
KCUL 220015Z AUTO 07010KT 7SM -RA BKN022 BKN031 OVC075 04/03 A3045 RMK AO2 P0002 T00380032
KCUL 212355Z AUTO 05009KT 7SM -RA BKN022 BKN044 OVC095 04/03 A3045 RMK AO2 P0006 60006 T00370031 10037 20029
KCUL 212335Z AUTO 05007KT 7SM RA SCT008 BKN060 OVC095 04/03 A3045 RMK AO2 P0004 T00350030
KCUL 212315Z AUTO 03007KT 5SM RA OVC008 03/03 A3045 RMK AO2 P0002 T00340030
KCUL 212255Z AUTO 02008KT 4SM RA OVC008 03/03 A3045 RMK AO2 P0006 T00320028
KCUL 212235Z AUTO 02008KT 4SM RA BKN008 OVC012 03/03 A3046 RMK AO2 P0004 T00310026
KCUL 212215Z AUTO 36010KT 4SM RA OVC008 03/03 A3046 RMK AO2 P0002 T00300026
KCUL 212155Z AUTO 35009KT 5SM -RA OVC008 03/03 A3047 RMK AO2 P0004 T00310026
KCUL 212135Z AUTO 36009KT 7SM RA BKN010 OVC013 03/03 A3047 RMK AO2 P0002 T00310025
KCUL 212115Z AUTO 36009KT 7SM RA OVC010 03/02 A3046 RMK AO2 P0001 T00310022
KCUL 212055Z AUTO 35010KT 7SM RA OVC010 03/02 A3045 RMK AO2 P0002 60002 T00300022
KCUL 212040Z AUTO 33011KT 10SM RA OVC010 03/02 A3046 RMK AO2 P0001 T00310022
KCUL 212015Z AUTO 33010KT 10SM -RA BKN010 OVC014 04/03 A3045 RMK AO2 T00350025
KCUL 211955Z AUTO 36011KT 10SM -RA OVC012 04/03 A3044 RMK AO2 P0003 T00350027
KCUL 211935Z AUTO 35008KT 10SM -RA BKN009 OVC014 04/03 A3044 RMK AO2 P0002 T00350025
KCUL 211915Z AUTO 01010KT 10SM -DZ OVC012 03/02 A3043 RMK AO2 P0001 T00340024